Ana Sayfa
METAR-TAF:

METAR-TAF

Havaalanları :

Bağdat Uluslararası Havaalanı

Bağdat, Irak

Enlem: 33-15-45N, Boylam: 44-14-04E, yükseklik: 35 m

Güncel hava durumu gözlemi

Rapor saat 04:30 UTC de 35 dakika önce yapıldı.
Rüzgar doğu/güneydoğudan 6 kt
Sıcaklık 10°C
Nem 100%
Basınç 1021 hPa
Görüş mesafesi: 3500 m

METAR: ORBI 130430Z 12006KT 3500 NSC 10/10 Q1021

Saat: 08:05 (05:05 UTC)

Tahmin

Rapor saat 22:00 UTC de 7 saat ve 5 dakika önce yapıldı.
Ayın 13'si saat 00 UTC'den ayın 13'si saat 24 UTC'ye kadar geçerli Tahmin
Rüzgar doğu/güneydoğudan 6 kt
Görüş mesafesi: 6000 m

TAF: ORBI 122200Z 1300/1324 12006KT 6000 NSC

4.000'den fazla havaalanı için hava durumu gözlemleri ve tahminleri (METAR ve TAF raporları).

Kullanılabilir istasyonlar harita üzerinde sarı ve kırmızı noktalarla gösterilir.

İstasyonun adını görmek için fareyi noktanın üzerinde gezdirin.

Sonrasında hava gözlem ve tahminlerini görmek için tıklayın.

Haritayı değiştirmek için: yaklaştırmak için siyah artı işaretli yeşil düğmeye ve uzaklaştırmak için de eksi işaretli düğmeye hızla tıklayın; bitişik haritalar için yeşil okları kullanın.


METAR-TAF: